Karval, Colorado
Current Conditions -  °F | °C
As of 1:55 AM on Monday 22 Dec 2014 (Local Time) from KLIC Reporting Station
Overcast Overcast  
Wind Chill: 21°   Ceiling: 9500
Heat Index: 31°   Visibility: 10mi
Dew Point: 29°   Wind: 13mph
Humidity: 92%   Direction: 290°WNW
Pressure: 29.7"   Gusts: NA
Location:  38.73°N, 103.54°W
Report Text: KLIC 220855Z AUTO 29011KT 10SM OVC095 M01/M02 A2970 RMK AO2 SLP039 60002 T10061017 53005
Loading
Personal Weather Stations






























Interactive Weather Map New forecast layout! Learn more

10-Day Weather Forecast

Advertisements
Track Severe Weather on mobile